Time;durP1;ratioP1;P1;durP2;ratioP2;P2;SDS_P1;SDS_P2;PMS_P1;PMS_P2;Temp;Humidity;BMP_temperature;BMP_pressure;BME280_temperature;BME280_humidity;BME280_pressure;Samples;Min_cycle;Max_cycle;Signal;HPM_P1;HPM_P2
2022/05/01 00:01:11;;;;;;;15.18;5.97;;;;;;;4.26;53.20;100216.47;5036736;28;20037;-42
2022/05/01 00:03:37;;;;;;;14.30;6.00;;;;;;;4.30;53.65;100234.47;5042179;28;20131;-44
2022/05/01 00:06:05;;;;;;;15.57;5.90;;;;;;;4.18;53.76;100217.34;5042877;28;20132;-42
2022/05/01 00:08:31;;;;;;;15.93;6.43;;;;;;;4.24;53.91;100237.91;5066880;28;20088;-43
2022/05/01 00:10:57;;;;;;;12.75;6.55;;;;;;;4.16;53.95;100231.91;5032492;28;20319;-41
2022/05/01 00:13:24;;;;;;;15.15;5.95;;;;;;;4.11;54.18;100231.06;5041915;28;20041;-42
2022/05/01 00:15:50;;;;;;;20.60;6.55;;;;;;;4.06;53.98;100225.91;5010668;28;20088;-42
2022/05/01 00:18:16;;;;;;;11.18;5.85;;;;;;;4.12;54.16;100240.50;5042691;28;20068;-42
2022/05/01 00:20:43;;;;;;;16.98;6.35;;;;;;;4.02;54.20;100215.63;5044285;28;20037;-43
2022/05/01 00:23:09;;;;;;;14.93;6.78;;;;;;;4.09;54.37;100238.78;5071571;28;20046;-42
2022/05/01 00:25:35;;;;;;;16.42;6.22;;;;;;;3.97;54.67;100225.91;5041329;28;20052;-42
2022/05/01 00:28:01;;;;;;;15.15;6.25;;;;;;;3.96;55.04;100220.75;5071481;28;20069;-42
2022/05/01 00:30:26;;;;;;;17.25;6.55;;;;;;;4.03;54.83;100241.31;5034651;28;20073;-42
2022/05/01 00:38:21;;;;;;;20.15;7.40;;;;;;;3.96;55.39;100231.91;5041225;28;20183;-44
2022/05/01 00:40:48;;;;;;;19.60;6.55;;;;;;;3.92;55.36;100239.63;5048917;28;20120;-44
2022/05/01 00:43:13;;;;;;;20.40;6.63;;;;;;;3.90;55.88;100249.91;5045809;28;20036;-43
2022/05/01 00:45:39;;;;;;;22.90;7.03;;;;;;;3.86;55.64;100240.47;5044328;28;20037;-42
2022/05/01 00:48:06;;;;;;;21.40;6.82;;;;;;;3.83;55.63;100237.88;5050142;28;20048;-41
2022/05/01 00:50:32;;;;;;;19.35;7.07;;;;;;;3.79;55.99;100246.44;5046940;28;20047;-43
2022/05/01 00:52:59;;;;;;;18.30;7.00;;;;;;;3.77;56.23;100246.44;5071678;28;20044;-43
2022/05/01 00:55:25;;;;;;;16.65;6.63;;;;;;;3.76;56.22;100243.88;5074205;28;20593;-42
2022/05/01 00:57:51;;;;;;;13.32;6.03;;;;;;;3.63;56.36;100224.13;5044221;28;20053;-42
2022/05/01 01:00:18;;;;;;;16.45;6.68;;;;;;;3.74;56.49;100248.16;5059897;28;20505;-43
2022/05/01 01:02:47;;;;;;;13.43;6.07;;;;;;;3.72;56.63;100249.84;5042423;28;20033;-43
2022/05/01 01:05:13;;;;;;;14.03;6.10;;;;;;;3.71;56.59;100248.16;5041755;28;20048;-42
2022/05/01 01:07:39;;;;;;;12.55;5.82;;;;;;;3.60;56.59;100235.28;5040886;28;20352;-41
2022/05/01 01:10:06;;;;;;;13.35;5.88;;;;;;;3.66;56.58;100245.59;5045866;28;20045;-43
2022/05/01 01:15:16;;;;;;;11.60;5.57;;;;;;;3.59;56.61;100246.41;5046514;28;20124;-42
2022/05/01 01:17:43;;;;;;;11.52;5.68;;;;;;;3.54;56.65;100242.09;5044956;28;20131;-42
2022/05/01 01:20:18;;;;;;;12.90;5.72;;;;;;;3.57;56.63;100250.69;5041009;28;20529;-41
2022/05/01 01:22:47;;;;;;;16.30;7.03;;;;;;;3.57;56.78;100252.38;5045821;28;20083;-41
2022/05/01 01:25:13;;;;;;;14.18;6.35;;;;;;;3.44;56.55;100227.50;5042545;28;20051;-43
2022/05/01 01:27:40;;;;;;;18.08;6.57;;;;;;;3.40;56.63;100224.09;5014686;28;20127;-43
2022/05/01 01:32:54;;;;;;;11.45;6.03;;;;;;;3.49;56.91;100244.66;5045401;28;20429;-43
2022/05/01 01:35:23;;;;;;;11.50;6.22;;;;;;;3.48;56.93;100248.09;5069155;28;20053;-42
2022/05/01 01:37:50;;;;;;;11.60;6.10;;;;;;;3.49;56.89;100242.09;5038053;28;20049;-42
2022/05/01 01:40:25;;;;;;;14.57;6.28;;;;;;;3.50;57.12;100246.38;5045216;28;20148;-43
2022/05/01 01:42:54;;;;;;;14.82;5.88;;;;;;;3.51;57.30;100240.38;5049626;28;20041;-42
2022/05/01 01:45:21;;;;;;;16.98;6.32;;;;;;;3.53;57.46;100242.97;5049378;28;20083;-41
2022/05/01 01:47:50;;;;;;;14.75;5.60;;;;;;;3.50;57.49;100237.81;5049748;28;20740;-43
2022/05/01 01:50:20;;;;;;;18.17;6.63;;;;;;;3.37;57.62;100221.50;5049134;28;20540;-41
2022/05/01 01:52:49;;;;;;;12.98;6.22;;;;;;;3.51;58.05;100231.84;5049290;28;20052;-42
2022/05/01 01:55:18;;;;;;;13.73;6.20;;;;;;;3.51;58.08;100240.38;5049769;28;20033;-42
2022/05/01 01:57:47;;;;;;;15.23;6.57;;;;;;;3.52;58.31;100239.53;5049373;28;20045;-42
2022/05/01 02:00:15;;;;;;;14.68;6.35;;;;;;;3.51;58.30;100239.53;5047367;28;20555;-43
2022/05/01 02:02:41;;;;;;;15.95;5.90;;;;;;;3.49;57.95;100244.66;5047543;28;20040;-43
2022/05/01 02:05:07;;;;;;;22.02;6.53;;;;;;;3.38;57.75;100231.78;5048448;28;20090;-43
2022/05/01 02:07:36;;;;;;;19.08;6.03;;;;;;;3.45;57.61;100242.94;5049284;28;20053;-42
2022/05/01 02:10:03;;;;;;;11.57;5.93;;;;;;;3.40;57.31;100242.91;5048289;28;20052;-43
2022/05/01 02:12:29;;;;;;;17.45;7.10;;;;;;;3.30;57.22;100224.88;5048615;28;20043;-42
2022/05/01 02:14:55;;;;;;;10.90;6.20;;;;;;;3.41;57.29;100247.19;5047527;28;20037;-43
2022/05/01 02:17:21;;;;;;;13.30;6.03;;;;;;;3.27;57.17;100228.31;5049080;28;20140;-43
2022/05/01 02:19:47;;;;;;;11.32;6.03;;;;;;;3.41;56.99;100243.75;5049163;28;20076;-42
2022/05/01 02:22:15;;;;;;;10.50;5.65;;;;;;;3.36;57.11;100242.88;5047048;28;20528;-42
2022/05/01 02:24:41;;;;;;;15.77;5.88;;;;;;;3.42;56.82;100248.06;5047922;28;20048;-43
2022/05/01 02:27:07;;;;;;;13.02;6.22;;;;;;;3.36;56.91;100245.47;5048586;28;20047;-43
2022/05/01 02:29:33;;;;;;;13.30;5.60;;;;;;;3.26;57.00;100239.44;5047368;28;20102;-43
2022/05/01 02:31:59;;;;;;;14.27;5.78;;;;;;;3.27;56.78;100251.44;5046685;28;20037;-43
2022/05/01 02:34:25;;;;;;;13.63;6.00;;;;;;;3.30;56.86;100251.44;5046986;28;20033;-43
2022/05/01 02:36:55;;;;;;;16.95;5.72;;;;;;;3.26;56.93;100239.44;5049376;28;20516;-42
2022/05/01 02:39:22;;;;;;;11.73;6.22;;;;;;;3.35;56.49;100252.31;5046881;28;20084;-43
2022/05/01 02:41:48;;;;;;;10.13;5.50;;;;;;;3.19;56.59;100221.44;5047730;28;20095;-44
2022/05/01 02:44:13;;;;;;;10.23;5.70;;;;;;;3.39;56.46;100242.94;5046877;28;20036;-43
2022/05/01 02:46:39;;;;;;;11.95;6.07;;;;;;;3.41;56.55;100249.78;5046989;28;20614;-43
2022/05/01 02:49:05;;;;;;;13.20;5.60;;;;;;;3.53;56.48;100251.53;5048730;28;20044;-42
2022/05/01 02:51:31;;;;;;;14.80;6.72;;;;;;;3.44;56.01;100228.38;5048744;28;20106;-42
2022/05/01 02:53:58;;;;;;;13.75;6.22;;;;;;;3.62;56.06;100251.53;5045609;28;20039;-42
2022/05/01 02:56:26;;;;;;;12.02;5.95;;;;;;;3.60;55.92;100255.00;5048853;28;20060;-42
2022/05/01 02:58:51;;;;;;;15.93;5.70;;;;;;;3.59;55.74;100254.13;5048995;28;20049;-42
2022/05/01 03:01:17;;;;;;;12.50;5.45;;;;;;;3.58;55.34;100249.84;5048422;28;20500;-43
2022/05/01 03:03:43;;;;;;;14.82;5.55;;;;;;;3.60;55.29;100242.13;5045915;28;20047;-42
2022/05/01 03:06:08;;;;;;;9.23;5.15;;;;;;;3.67;55.28;100261.84;5045701;28;20570;-43
2022/05/01 03:08:34;;;;;;;11.57;5.35;;;;;;;3.59;54.97;100236.13;5046598;28;20416;-42
2022/05/01 03:11:01;;;;;;;12.00;4.85;;;;;;;3.76;54.94;100254.16;5046801;28;20434;-42
2022/05/01 03:13:27;;;;;;;12.80;5.10;;;;;;;3.80;54.74;100258.47;5046922;28;20045;-43
2022/05/01 03:15:53;;;;;;;11.88;5.30;;;;;;;3.87;54.58;100254.19;5048288;28;20063;-43
2022/05/01 03:23:49;;;;;;;12.70;4.95;;;;;;;4.03;53.81;100255.94;5040574;28;20040;-44
2022/05/01 03:26:18;;;;;;;11.48;5.25;;;;;;;4.05;53.63;100246.47;5048198;28;20040;-41
2022/05/01 03:28:45;;;;;;;11.50;4.90;;;;;;;4.17;53.64;100251.66;5046906;28;20037;-43
2022/05/01 03:31:12;;;;;;;8.57;4.43;;;;;;;4.22;53.31;100255.09;5029973;28;20064;-44
2022/05/01 03:33:38;;;;;;;10.65;4.63;;;;;;;4.26;53.27;100252.50;5046951;28;20416;-44
2022/05/01 03:36:06;;;;;;;13.57;5.88;;;;;;;4.33;52.63;100257.66;5047936;28;20033;-42
2022/05/01 03:38:35;;;;;;;9.68;4.38;;;;;;;4.36;52.67;100260.22;5047629;28;20079;-42
2022/05/01 03:41:01;;;;;;;12.65;5.10;;;;;;;4.38;51.64;100264.53;5029821;28;20140;-45
2022/05/01 03:43:27;;;;;;;9.68;4.85;;;;;;;4.33;51.61;100252.50;5046720;28;20044;-43
2022/05/01 03:45:53;;;;;;;11.90;4.43;;;;;;;4.44;51.76;100261.09;5047723;28;20043;-44
2022/05/01 03:48:19;;;;;;;7.28;4.10;;;;;;;4.47;50.91;100269.66;5047132;28;20033;-43
2022/05/01 03:50:45;;;;;;;13.93;4.28;;;;;;;4.47;50.79;100267.09;5048186;28;20040;-43
2022/05/01 03:53:11;;;;;;;9.25;3.97;;;;;;;4.41;50.53;100243.06;5046807;28;20432;-45
2022/05/01 03:55:36;;;;;;;7.65;4.20;;;;;;;4.55;50.22;100265.34;5047578;28;20060;-43
2022/05/01 03:58:03;;;;;;;8.52;4.30;;;;;;;4.61;50.00;100272.22;5047334;28;20049;-44
2022/05/01 04:00:28;;;;;;;7.85;3.85;;;;;;;4.67;49.68;100262.78;5045959;28;20047;-44
2022/05/01 04:02:54;;;;;;;13.57;4.35;;;;;;;4.77;49.24;100265.34;5046245;28;20420;-43
2022/05/01 04:05:20;;;;;;;9.52;4.40;;;;;;;4.72;49.42;100252.47;5047717;28;20053;-44
2022/05/01 04:07:45;;;;;;;8.23;4.25;;;;;;;4.79;48.58;100246.44;5047069;28;20064;-43
2022/05/01 04:10:12;;;;;;;8.02;3.88;;;;;;;4.97;48.79;100263.59;5046175;28;20040;-43
2022/05/01 04:12:38;;;;;;;12.02;4.68;;;;;;;4.91;48.09;100241.28;5048399;28;20037;-44
2022/05/01 04:15:07;;;;;;;8.50;3.67;;;;;;;5.05;47.79;100267.84;5055430;28;20492;-45
2022/05/01 04:17:40;;;;;;;8.50;4.35;;;;;;;5.12;48.30;100268.72;5050152;28;20045;-46
2022/05/01 04:20:11;;;;;;;9.43;4.30;;;;;;;5.23;48.02;100258.38;5050284;28;20055;-42
2022/05/01 04:22:38;;;;;;;13.48;5.03;;;;;;;5.17;47.82;100233.47;5051213;28;20089;-44
2022/05/01 04:25:15;;;;;;;8.88;3.83;;;;;;;5.44;47.71;100261.69;5051317;28;20037;-42
2022/05/01 04:27:42;;;;;;;8.82;3.72;;;;;;;5.47;47.20;100253.97;5051094;28;20123;-44
2022/05/01 04:30:11;;;;;;;12.68;4.10;;;;;;;5.66;47.29;100264.16;5050746;28;20052;-46
2022/05/01 04:32:57;;;;;;;9.68;3.67;;;;;;;5.77;47.10;100262.38;5057240;28;20698;-43
2022/05/01 04:35:43;;;;;;;8.68;4.20;;;;;;;5.90;46.38;100271.81;5051392;28;20075;-43
2022/05/01 04:38:15;;;;;;;7.82;3.97;;;;;;;6.01;45.96;100261.44;5049428;28;20043;-44
2022/05/01 04:40:49;;;;;;;10.18;4.13;;;;;;;6.10;45.99;100248.47;5031604;28;20547;-45
2022/05/01 04:43:26;;;;;;;8.90;3.95;;;;;;;6.19;45.40;100256.13;5076669;28;20110;-45
2022/05/01 04:45:53;;;;;;;12.70;3.88;;;;;;;6.28;45.49;100251.75;5041736;28;20102;-45
2022/05/01 04:48:20;;;;;;;7.65;3.42;;;;;;;6.37;45.17;100258.56;5050190;28;20041;-43
2022/05/01 04:50:46;;;;;;;7.40;3.30;;;;;;;6.44;43.99;100254.22;5051279;28;20504;-44
2022/05/01 04:53:13;;;;;;;6.40;3.22;;;;;;;6.51;44.09;100261.03;5050458;28;20044;-42
2022/05/01 04:55:40;;;;;;;7.78;3.10;;;;;;;6.53;43.58;100260.16;5048774;28;20393;-44
2022/05/01 04:58:07;;;;;;;9.82;3.67;;;;;;;6.58;43.38;100258.41;5049106;28;20044;-46
2022/05/01 05:00:33;;;;;;;8.88;3.65;;;;;;;6.65;43.12;100247.13;5048349;28;20036;-45
2022/05/01 05:02:58;;;;;;;6.88;3.35;;;;;;;6.71;42.14;100252.22;5049083;28;20037;-42
2022/05/01 05:05:26;;;;;;;9.20;3.28;;;;;;;6.76;42.46;100253.03;5049341;28;20068;-45
2022/05/01 05:07:53;;;;;;;8.75;3.45;;;;;;;6.88;42.34;100253.78;5050324;28;20057;-44
2022/05/01 05:10:19;;;;;;;11.60;3.85;;;;;;;6.87;41.99;100242.59;5049382;28;20041;-43
2022/05/01 05:12:46;;;;;;;8.00;3.28;;;;;;;6.99;42.26;100255.41;5032359;28;20041;-45
2022/05/01 05:15:15;;;;;;;8.10;3.30;;;;;;;7.08;42.26;100257.88;5047614;28;20043;-46
2022/05/01 05:17:41;;;;;;;8.30;2.50;;;;;;;7.19;41.33;100250.84;5049647;28;20048;-44
2022/05/01 05:20:09;;;;;;;8.15;2.58;;;;;;;7.29;40.94;100250.75;5049342;28;20081;-44
2022/05/01 05:22:35;;;;;;;9.10;3.90;;;;;;;7.38;41.10;100256.66;5049910;28;20040;-44
2022/05/01 05:25:02;;;;;;;7.97;3.30;;;;;;;7.49;40.71;100238.41;5048657;28;20041;-44
2022/05/01 05:27:29;;;;;;;8.68;2.72;;;;;;;7.61;40.54;100249.47;5050159;28;20045;-43
2022/05/01 05:29:56;;;;;;;7.20;2.28;;;;;;;7.68;39.56;100250.25;5050419;28;20041;-45
2022/05/01 05:32:23;;;;;;;6.38;2.55;;;;;;;7.69;39.82;100244.22;5049683;28;20499;-43
2022/05/01 05:34:49;;;;;;;5.72;2.40;;;;;;;7.73;39.50;100248.47;5048458;28;20040;-45
2022/05/01 05:37:16;;;;;;;5.55;2.42;;;;;;;7.80;39.44;100244.06;5048830;28;20527;-44
2022/05/01 05:39:42;;;;;;;3.60;2.47;;;;;;;7.84;39.18;100237.94;5048438;28;20075;-45
2022/05/01 05:42:09;;;;;;;6.32;2.45;;;;;;;7.93;39.29;100240.41;5064838;28;20044;-43
2022/05/01 05:44:35;;;;;;;5.72;2.17;;;;;;;7.98;38.90;100248.94;5081550;28;20041;-44
2022/05/01 05:47:00;;;;;;;3.65;1.88;;;;;;;8.01;38.40;100235.94;5049503;28;20041;-43
2022/05/01 05:49:26;;;;;;;9.27;2.50;;;;;;;8.06;37.82;100231.56;5049896;28;20044;-46
2022/05/01 05:51:52;;;;;;;4.45;2.33;;;;;;;8.04;38.09;100215.19;5048300;28;20078;-43
2022/05/01 05:54:18;;;;;;;4.88;2.30;;;;;;;8.12;38.10;100215.06;5049221;28;20064;-44
2022/05/01 05:56:44;;;;;;;6.20;2.08;;;;;;;8.18;37.46;100212.38;5049306;28;20457;-43
2022/05/01 05:59:10;;;;;;;4.90;1.33;;;;;;;8.28;37.00;100234.66;5047730;28;20131;-43
2022/05/01 06:01:36;;;;;;;2.80;1.80;;;;;;;8.35;37.10;100220.78;5048232;28;20550;-45
2022/05/01 06:04:02;;;;;;;6.43;2.22;;;;;;;8.53;37.31;100225.63;5048017;28;20103;-44
2022/05/01 06:06:28;;;;;;;3.10;1.73;;;;;;;8.68;36.56;100240.94;5081219;28;20101;-44
2022/05/01 06:08:54;;;;;;;3.90;1.95;;;;;;;8.80;36.49;100230.31;5048909;28;20036;-43
2022/05/01 06:11:20;;;;;;;2.60;1.77;;;;;;;8.92;36.36;100226.66;5049431;28;20047;-48
2022/05/01 06:13:46;;;;;;;4.80;1.92;;;;;;;8.92;36.17;100201.59;5044551;28;20030;-44
2022/05/01 06:16:13;;;;;;;2.40;1.10;;;;;;;9.13;35.02;100202.03;5048148;28;20052;-45
2022/05/01 06:18:38;;;;;;;5.72;1.52;;;;;;;9.54;35.56;100227.13;5049244;28;20162;-44
2022/05/01 06:21:04;;;;;;;2.55;1.58;;;;;;;10.26;33.88;100211.63;5047362;28;20821;-44
2022/05/01 06:23:30;;;;;;;4.72;1.77;;;;;;;11.19;32.26;100216.97;5047783;28;20075;-45
2022/05/01 06:25:56;;;;;;;2.78;1.55;;;;;;;12.42;30.85;100221.00;5063103;28;20041;-45
2022/05/01 06:28:22;;;;;;;5.65;2.00;;;;;;;13.38;29.21;100219.34;5057890;28;20124;-45
2022/05/01 06:30:51;;;;;;;4.03;1.48;;;;;;;14.41;27.31;100196.94;5047468;28;20485;-44
2022/05/01 06:33:19;;;;;;;2.28;1.50;;;;;;;15.60;26.45;100223.97;5048018;28;20128;-44
2022/05/01 06:35:53;;;;;;;3.35;1.30;;;;;;;16.52;24.98;100217.78;5047775;28;20071;-43
2022/05/01 06:38:19;;;;;;;5.28;1.88;;;;;;;17.74;23.80;100220.16;5047860;28;20067;-47
2022/05/01 06:40:46;;;;;;;3.15;1.40;;;;;;;18.30;22.65;100214.31;5048619;28;20504;-45
2022/05/01 06:43:13;;;;;;;2.22;1.10;;;;;;;19.32;21.25;100216.09;5067312;28;20040;-46
2022/05/01 06:45:41;;;;;;;2.72;1.60;;;;;;;20.14;20.48;100214.38;5051475;28;20790;-45
2022/05/01 06:48:10;;;;;;;2.53;1.55;;;;;;;20.70;19.72;100212.41;5047462;28;20053;-48
2022/05/01 06:50:36;;;;;;;2.35;1.60;;;;;;;21.06;19.68;100193.19;5047522;28;20051;-44
2022/05/01 06:53:04;;;;;;;3.17;1.73;;;;;;;22.26;18.99;100198.63;5046956;28;20523;-44
2022/05/01 06:55:30;;;;;;;5.18;2.03;;;;;;;23.43;18.23;100200.19;5048395;28;20421;-48
2022/05/01 06:57:56;;;;;;;4.78;1.60;;;;;;;23.12;17.25;100198.25;5058788;28;20130;-47
2022/05/01 07:00:23;;;;;;;4.20;2.08;;;;;;;22.90;17.21;100196.44;5043704;28;20171;-45
2022/05/01 07:02:51;;;;;;;3.08;1.80;;;;;;;23.26;16.88;100205.13;5046288;28;20068;-46
2022/05/01 07:05:18;;;;;;;3.53;1.70;;;;;;;24.08;16.66;100199.34;5047988;28;20041;-44
2022/05/01 07:07:45;;;;;;;5.95;1.77;;;;;;;23.41;16.63;100183.53;5048362;28;20147;-44
2022/05/01 07:10:11;;;;;;;3.95;1.70;;;;;;;23.78;16.55;100186.75;5048335;28;20044;-43
2022/05/01 07:12:37;;;;;;;2.28;1.70;;;;;;;23.35;16.37;100191.13;5047900;28;20086;-42
2022/05/01 07:15:04;;;;;;;5.03;1.75;;;;;;;23.86;16.47;100176.38;5047100;28;20183;-44
2022/05/01 07:17:30;;;;;;;2.97;1.92;;;;;;;25.69;15.83;100183.75;5047796;28;20037;-47
2022/05/01 07:19:56;;;;;;;4.25;1.88;;;;;;;26.94;14.66;100182.91;5047007;28;20040;-44
2022/05/01 07:22:22;;;;;;;2.83;2.05;;;;;;;27.21;14.42;100171.44;5048290;28;20478;-45
2022/05/01 07:24:48;;;;;;;4.13;2.10;;;;;;;27.20;14.10;100169.75;5046582;28;20045;-45
2022/05/01 07:27:14;;;;;;;2.38;1.90;;;;;;;26.96;13.85;100180.91;5046459;28;20101;-44
2022/05/01 07:29:39;;;;;;;5.72;1.90;;;;;;;26.51;14.35;100173.56;5047628;28;20090;-44
2022/05/01 07:32:06;;;;;;;2.10;1.67;;;;;;;26.46;13.61;100188.31;5059586;28;20041;-45
2022/05/01 07:34:31;;;;;;;2.33;1.60;;;;;;;25.71;14.71;100167.59;5072019;28;20072;-42
2022/05/01 07:36:57;;;;;;;2.90;1.63;;;;;;;27.24;14.30;100144.44;5041708;28;20076;-44
2022/05/01 07:39:23;;;;;;;3.85;1.60;;;;;;;27.34;13.26;100164.75;5042004;28;20515;-46
2022/05/01 07:41:48;;;;;;;1.85;1.30;;;;;;;27.74;12.94;100172.44;5045019;28;20041;-48
2022/05/01 07:44:14;;;;;;;2.22;1.77;;;;;;;25.98;13.93;100164.28;5029759;28;20037;-46
2022/05/01 07:46:41;;;;;;;2.20;1.30;;;;;;;26.90;13.77;100158.31;5045991;28;20048;-47
2022/05/01 07:49:07;;;;;;;4.03;1.50;;;;;;;27.83;12.95;100165.34;5026762;28;20076;-46
2022/05/01 07:51:33;;;;;;;2.38;1.55;;;;;;;28.16;13.04;100158.50;5052069;28;20220;-49
2022/05/01 07:54:00;;;;;;;1.77;1.48;;;;;;;28.22;12.77;100141.84;5050584;28;20060;-46
2022/05/01 07:56:26;;;;;;;4.68;1.25;;;;;;;27.28;13.10;100145.81;5050804;28;20565;-46
2022/05/01 07:58:52;;;;;;;2.85;1.50;;;;;;;24.47;14.70;100126.97;5049525;28;20029;-47
2022/05/01 08:01:18;;;;;;;6.07;1.90;;;;;;;25.93;14.23;100134.53;5051250;28;20045;-48
2022/05/01 08:06:28;;;;;;;2.40;1.60;;;;;;;28.60;12.64;100146.84;5051001;28;20487;-47
2022/05/01 08:08:54;;;;;;;1.60;1.40;;;;;;;28.07;12.48;100146.88;5033684;28;20041;-45
2022/05/01 08:11:20;;;;;;;3.95;1.60;;;;;;;27.47;12.73;100134.19;5050944;28;20091;-44
2022/05/01 08:13:46;;;;;;;3.63;1.70;;;;;;;27.85;12.77;100135.78;5051696;28;20565;-45
2022/05/01 08:16:11;;;;;;;2.17;1.50;;;;;;;28.36;12.53;100135.13;5051259;28;20072;-43
2022/05/01 08:21:21;;;;;;;5.20;2.10;;;;;;;29.08;12.23;100132.09;5047720;28;20509;-46
2022/05/01 08:23:49;;;;;;;2.38;1.80;;;;;;;28.09;12.31;100136.03;5050537;28;20509;-46
2022/05/01 08:26:17;;;;;;;3.30;1.90;;;;;;;27.89;12.35;100121.16;5053831;28;20049;-48
2022/05/01 08:28:44;;;;;;;2.35;1.67;;;;;;;27.89;12.50;100108.63;5051145;28;20041;-50
2022/05/01 08:31:10;;;;;;;2.95;1.80;;;;;;;26.08;13.18;100125.13;5045454;28;20429;-49
2022/05/01 08:33:37;;;;;;;4.03;1.90;;;;;;;24.97;14.10;100113.81;5047026;28;20037;-46
2022/05/01 08:36:06;;;;;;;2.83;1.80;;;;;;;25.33;14.06;100107.09;5029092;28;20037;-48
2022/05/01 08:38:33;;;;;;;4.47;1.95;;;;;;;26.90;13.39;100106.81;5030655;28;20456;-48
2022/05/01 08:40:59;;;;;;;3.53;2.10;;;;;;;27.16;12.86;100096.28;5050335;28;20182;-48
2022/05/01 08:43:25;;;;;;;3.05;1.83;;;;;;;27.89;12.29;100110.47;5048318;28;20131;-50
2022/05/01 08:46:18;;;;;;;3.75;1.92;;;;;;;27.23;12.66;100124.91;5061424;28;20040;-48
2022/05/01 08:49:00;;;;;;;4.65;1.98;;;;;;;28.37;12.27;100108.19;5047483;28;20041;-48
2022/05/01 08:51:29;;;;;;;2.35;2.03;;;;;;;28.45;11.89;100096.72;5046735;28;20072;-46
2022/05/01 08:53:56;;;;;;;9.43;3.20;;;;;;;29.54;11.75;100095.09;5043265;28;20033;-45
2022/05/01 08:56:21;;;;;;;5.05;1.98;;;;;;;30.04;11.10;100100.41;5032211;28;20496;-46
2022/05/01 08:58:47;;;;;;;2.92;1.80;;;;;;;28.76;11.71;100084.56;5043056;28;20061;-44
2022/05/01 09:01:14;;;;;;;2.03;1.83;;;;;;;27.88;12.04;100071.34;5054251;28;20051;-46
2022/05/01 09:03:43;;;;;;;4.82;2.13;;;;;;;28.49;11.96;100079.34;5050968;28;20547;-44
2022/05/01 09:06:09;;;;;;;3.97;2.25;;;;;;;29.26;11.88;100079.25;5048606;28;20041;-46
2022/05/01 09:08:37;;;;;;;2.30;2.08;;;;;;;30.99;11.35;100076.25;5055140;28;20086;-46
2022/05/01 09:13:47;;;;;;;3.30;2.10;;;;;;;31.73;10.10;100074.88;5046785;28;20041;-44
2022/05/01 09:16:13;;;;;;;4.15;1.77;;;;;;;31.03;10.83;100060.66;5047642;28;20092;-46
2022/05/01 09:18:47;;;;;;;2.33;1.80;;;;;;;28.94;11.78;100044.34;5048486;28;20568;-48
2022/05/01 09:21:13;;;;;;;2.90;2.10;;;;;;;27.74;12.57;100049.50;5038441;28;20147;-44
2022/05/01 09:23:44;;;;;;;3.13;1.70;;;;;;;25.44;13.55;100035.06;5037578;28;20063;-45
2022/05/01 09:26:15;;;;;;;4.03;1.92;;;;;;;24.36;14.45;100051.75;5047645;28;20040;-45
2022/05/01 09:28:52;;;;;;;3.22;2.20;;;;;;;24.01;14.98;100044.97;5051284;28;20433;-46
2022/05/01 09:31:47;;;;;;;8.48;2.03;;;;;;;23.26;15.63;100045.94;5044716;28;20040;-46
2022/05/01 09:34:21;;;;;;;4.47;2.10;;;;;;;22.61;15.98;100036.09;5045619;28;21699;-46
2022/05/01 09:36:47;;;;;;;6.65;1.98;;;;;;;22.11;16.33;100018.81;5041585;28;20040;-42
2022/05/01 09:39:22;;;;;;;3.88;1.85;;;;;;;22.00;16.86;100032.88;5041138;28;20044;-43
2022/05/01 09:41:48;;;;;;;3.10;1.90;;;;;;;22.04;16.64;100036.13;5039294;28;20068;-43
2022/05/01 09:44:16;;;;;;;4.55;2.35;;;;;;;24.03;15.67;100034.19;5046012;28;20044;-42
2022/05/01 09:46:44;;;;;;;2.70;2.40;;;;;;;26.31;13.84;100033.25;5047880;28;20664;-46
2022/05/01 09:49:13;;;;;;;;;;;;;;;27.24;13.24;100038.47;5050196;28;20045;-47
2022/05/01 09:51:48;;;;;;;;;;;;;;;25.61;13.66;100046.88;5064533;28;19959;-50
2022/05/01 09:54:19;;;;;;;6.85;2.05;;;;;;;23.90;14.79;100039.69;5047281;28;20316;-51
2022/05/01 09:56:46;;;;;;;4.18;1.90;;;;;;;23.18;15.37;100030.66;5049225;28;20461;-38
2022/05/01 09:59:13;;;;;;;3.55;2.28;;;;;;;23.07;15.46;100033.31;5045744;28;20037;-39
2022/05/01 10:01:56;;;;;;;3.75;2.50;;;;;;;25.06;14.34;100024.38;5056800;28;20454;-40
2022/05/01 10:04:23;;;;;;;4.32;2.08;;;;;;;27.40;13.14;100027.97;5048222;28;20078;-38
2022/05/01 10:06:53;;;;;;;2.88;1.80;;;;;;;28.15;12.84;99999.09;5047099;28;20057;-38
2022/05/01 10:09:38;;;;;;;3.15;1.90;;;;;;;26.36;13.07;100012.31;5034945;28;20528;-38
2022/05/01 10:12:07;;;;;;;3.28;1.90;;;;;;;24.93;13.76;100008.66;5048839;28;20049;-39
2022/05/01 10:14:34;;;;;;;5.07;2.15;;;;;;;24.81;13.81;100007.03;5031599;28;20094;-38
2022/05/01 10:17:02;;;;;;;3.38;2.00;;;;;;;23.27;14.59;99998.06;5048686;28;20041;-38
2022/05/01 10:19:29;;;;;;;;;;;;;;;22.09;15.38;100000.38;5049229;28;20033;-38
2022/05/01 10:21:56;;;;;;;3.83;1.75;;;;;;;21.87;15.92;99998.53;5061371;28;19916;-39
2022/05/01 10:24:23;;;;;;;5.10;2.22;;;;;;;21.76;16.08;99979.97;5054761;28;20041;-38
2022/05/01 10:27:01;;;;;;;3.08;1.90;;;;;;;23.90;15.23;99978.59;5048485;28;20509;-38
2022/05/01 10:29:39;;;;;;;3.63;1.73;;;;;;;24.08;14.87;99986.81;5047898;28;20045;-40
2022/05/01 10:32:29;;;;;;;5.28;3.00;;;;;;;25.56;14.40;99988.72;5047964;28;20118;-38
2022/05/01 10:35:13;;;;;;;6.80;2.58;;;;;;;28.12;12.92;99986.84;5068780;28;20045;-38
2022/05/01 10:38:02;;;;;;;3.22;1.90;;;;;;;27.75;12.18;99986.22;5031276;28;20093;-39
2022/05/01 10:40:33;;;;;;;4.07;2.10;;;;;;;28.68;12.22;99973.94;5048900;28;20070;-38
2022/05/01 10:43:24;;;;;;;2.92;2.13;;;;;;;30.31;11.07;99977.44;5047678;28;20575;-39
2022/05/01 10:45:52;;;;;;;3.78;2.00;;;;;;;29.33;11.36;99970.47;5029326;28;20041;-38
2022/05/01 10:48:31;;;;;;;7.53;1.83;;;;;;;27.04;12.11;99974.69;5047763;28;20463;-38
2022/05/01 10:51:16;;;;;;;;;;;;;;;24.45;13.23;99968.56;5048175;28;20143;-40
2022/05/01 10:54:10;;;;;;;3.92;1.88;;;;;;;21.89;14.78;99962.16;5041639;28;19979;-38
2022/05/01 10:56:37;;;;;;;1.80;1.38;;;;;;;21.00;15.68;99951.22;5061506;28;20040;-37
2022/05/01 10:59:33;;;;;;;3.45;1.60;;;;;;;20.63;16.25;99963.59;5024117;28;20414;-39
2022/05/01 11:02:00;;;;;;;9.15;2.08;;;;;;;22.28;15.15;99942.38;5035882;28;20124;-38
2022/05/01 11:04:36;;;;;;;2.72;2.03;;;;;;;23.96;14.06;99951.53;5059847;28;20463;-38
2022/05/01 11:07:03;;;;;;;3.33;1.80;;;;;;;23.55;14.37;99947.03;5026936;28;20107;-38
2022/05/01 11:09:32;;;;;;;4.13;1.55;;;;;;;22.42;15.02;99943.94;5044784;28;20037;-39
2022/05/01 11:11:59;;;;;;;2.22;1.50;;;;;;;21.11;15.79;99940.72;5042626;28;20782;-37
2022/05/01 11:14:35;;;;;;;2.17;1.55;;;;;;;20.23;16.48;99930.38;5044904;28;20059;-38
2022/05/01 11:17:02;;;;;;;5.53;1.70;;;;;;;19.76;17.14;99942.44;5046200;28;20040;-39
2022/05/01 11:19:44;;;;;;;5.15;2.22;;;;;;;19.00;17.75;99925.53;5045075;28;20045;-37
2022/05/01 11:22:14;;;;;;;3.78;1.80;;;;;;;18.56;18.33;99925.78;5045595;28;20521;-37
2022/05/01 11:24:43;;;;;;;3.03;1.73;;;;;;;18.14;18.66;99929.25;5046521;28;20459;-39
2022/05/01 11:27:17;;;;;;;2.75;2.03;;;;;;;18.95;18.14;99940.81;5010247;28;20041;-38
2022/05/01 11:30:07;;;;;;;3.67;2.00;;;;;;;21.65;16.51;99927.00;5048173;28;20040;-38
2022/05/01 11:32:42;;;;;;;6.60;2.25;;;;;;;23.69;15.58;99929.13;5046621;28;20049;-39
2022/05/01 11:35:11;;;;;;;3.42;1.88;;;;;;;23.39;15.48;99922.75;5045459;28;20100;-37
2022/05/01 11:38:08;;;;;;;3.03;1.80;;;;;;;23.04;15.36;99923.00;5062109;28;20162;-39
2022/05/01 11:40:34;;;;;;;2.97;1.98;;;;;;;24.74;14.47;99919.00;5063240;28;20860;-38
2022/05/01 11:43:19;;;;;;;3.72;2.20;;;;;;;26.36;13.43;99916.34;5044538;28;20864;-38
2022/05/01 11:45:46;;;;;;;4.43;2.40;;;;;;;27.77;12.86;99902.25;5046695;28;20045;-38
2022/05/01 11:48:13;;;;;;;3.90;2.15;;;;;;;28.28;12.58;99905.03;5046771;28;20047;-37
2022/05/01 11:50:45;;;;;;;2.88;2.03;;;;;;;28.18;12.46;99897.16;5045356;28;20188;-38
2022/05/01 11:53:27;;;;;;;6.45;2.50;;;;;;;27.37;12.94;99894.72;5045898;28;20128;-38
2022/05/01 12:04:30;;;;;;;5.55;2.13;;;;;;;24.44;14.98;99889.81;5046723;28;20037;-38
2022/05/01 12:07:07;;;;;;;3.00;1.92;;;;;;;24.10;14.89;99883.06;5046618;28;20439;-38
2022/05/01 12:09:37;;;;;;;6.15;1.92;;;;;;;23.36;15.12;99885.84;5027538;28;20045;-38